createdAt,value
2019-01-21T00:00:48.755Z,44.67
2019-01-21T00:03:21.065Z,45.10
2019-01-21T00:05:50.033Z,46.70
2019-01-21T00:08:26.149Z,45.87
2019-01-21T00:10:57.144Z,46.93
2019-01-21T00:13:25.204Z,47.23
2019-01-21T00:15:53.377Z,48.67
2019-01-21T00:18:21.780Z,48.97
2019-01-21T00:20:49.985Z,47.53
2019-01-21T00:23:18.189Z,47.07
2019-01-21T00:25:46.329Z,48.17
2019-01-21T00:28:14.514Z,47.70
2019-01-21T00:30:42.635Z,48.07
2019-01-21T00:33:10.850Z,49.67
2019-01-21T00:35:39.066Z,45.23
2019-01-21T00:38:07.235Z,48.23
2019-01-21T00:40:35.516Z,45.90
2019-01-21T00:43:03.823Z,47.17
2019-01-21T00:45:32.943Z,47.37
2019-01-21T00:48:02.323Z,46.37
2019-01-21T00:50:30.418Z,48.40
2019-01-21T00:52:58.567Z,47.00
2019-01-21T00:55:26.727Z,47.30
2019-01-21T00:57:54.799Z,48.83
2019-01-21T01:00:25.239Z,48.23
2019-01-21T01:02:53.489Z,49.17
2019-01-21T01:05:22.448Z,48.87
2019-01-21T01:07:50.577Z,47.90
2019-01-21T01:10:18.845Z,50.13
2019-01-21T01:12:47.100Z,45.67
2019-01-21T01:15:16.200Z,49.40
2019-01-21T01:17:44.396Z,48.13
2019-01-21T01:20:18.914Z,48.37
2019-01-21T01:22:47.196Z,49.90
2019-01-21T01:25:15.261Z,49.40
2019-01-21T01:27:43.542Z,48.80
2019-01-21T01:30:15.656Z,49.63
2019-01-21T01:32:43.954Z,50.80
2019-01-21T01:35:14.393Z,48.80
2019-01-21T01:37:42.933Z,49.47
2019-01-21T01:40:15.165Z,48.67
2019-01-21T01:42:43.429Z,48.90
2019-01-21T01:45:16.640Z,48.83
2019-01-21T01:47:45.146Z,49.93
2019-01-21T01:50:13.945Z,48.00
2019-01-21T01:52:42.019Z,49.17
2019-01-21T01:55:10.395Z,51.63
2019-01-21T01:57:38.735Z,50.70
2019-01-21T02:00:11.311Z,51.57
2019-01-21T02:02:39.383Z,51.20
2019-01-21T02:05:07.883Z,48.50
2019-01-21T02:07:36.206Z,48.07
2019-01-21T02:10:06.551Z,48.83
2019-01-21T02:12:34.988Z,49.30
2019-01-21T02:15:06.902Z,47.23
2019-01-21T02:17:35.034Z,50.80
2019-01-21T02:20:05.055Z,49.87
2019-01-21T02:22:34.574Z,53.00
2019-01-21T02:25:03.853Z,50.40
2019-01-21T02:28:12.330Z,48.40
2019-01-21T02:31:22.881Z,48.33
2019-01-21T02:35:10.093Z,47.83
2019-01-21T02:38:27.796Z,46.90
2019-01-21T02:41:42.159Z,44.37
2019-01-21T02:45:01.827Z,47.07
2019-01-21T02:48:00.210Z,45.23
2019-01-21T02:51:30.727Z,47.60
2019-01-21T02:54:21.874Z,46.50
2019-01-21T02:57:25.128Z,47.67
2019-01-21T03:00:22.348Z,44.87
2019-01-21T03:03:34.809Z,45.37
2019-01-21T03:06:52.143Z,43.97
2019-01-21T03:10:01.615Z,45.87
2019-01-21T03:13:28.674Z,44.13
2019-01-21T03:17:07.044Z,45.57
2019-01-21T03:20:04.130Z,44.87
2019-01-21T03:23:48.065Z,43.67
2019-01-21T03:27:27.216Z,44.73
2019-01-21T03:31:13.600Z,43.57
2019-01-21T03:34:16.074Z,45.37
2019-01-21T03:37:44.460Z,43.60
2019-01-21T03:41:01.326Z,44.03
2019-01-21T03:44:21.190Z,45.17
2019-01-21T03:47:58.710Z,43.00
2019-01-21T03:51:20.966Z,43.53
2019-01-21T03:54:25.812Z,44.70
2019-01-21T03:57:50.174Z,46.73
2019-01-21T04:00:43.490Z,43.80
2019-01-21T04:04:05.706Z,43.33
2019-01-21T04:07:03.948Z,46.53
2019-01-21T04:10:19.764Z,44.90
2019-01-21T04:13:45.734Z,44.70
2019-01-21T04:16:55.847Z,44.87
2019-01-21T04:20:14.435Z,43.23
2019-01-21T04:24:10.549Z,46.70
2019-01-21T04:27:33.102Z,44.97
2019-01-21T04:31:11.725Z,43.60
2019-01-21T04:34:21.714Z,45.40
2019-01-21T04:37:44.841Z,44.93
2019-01-21T04:41:19.424Z,42.70
2019-01-21T04:44:45.886Z,44.93
2019-01-21T04:48:05.533Z,45.53
2019-01-21T04:51:39.020Z,43.03
2019-01-21T04:55:05.737Z,43.20
2019-01-21T04:58:26.971Z,42.57
2019-01-21T05:01:34.377Z,44.20
2019-01-21T05:04:57.594Z,42.37
2019-01-21T05:08:21.885Z,42.03
2019-01-21T05:11:44.201Z,42.97
2019-01-21T05:14:55.946Z,44.97
2019-01-21T05:18:14.326Z,44.67
2019-01-21T05:21:36.017Z,42.43
2019-01-21T05:24:35.616Z,41.97
2019-01-21T05:27:43.557Z,43.63
2019-01-21T05:30:57.064Z,43.83
2019-01-21T05:34:31.030Z,41.63
2019-01-21T05:37:43.012Z,41.03
2019-01-21T05:41:11.639Z,40.73
2019-01-21T05:44:50.833Z,42.83
2019-01-21T05:48:02.641Z,40.87
2019-01-21T05:51:40.881Z,40.40
2019-01-21T05:55:03.913Z,41.03
2019-01-21T05:58:26.529Z,41.93
2019-01-21T06:01:48.657Z,41.73
2019-01-21T06:05:19.828Z,41.63
2019-01-21T06:08:45.349Z,41.07
2019-01-21T06:11:41.093Z,39.73
2019-01-21T06:14:55.138Z,40.83
2019-01-21T06:18:31.684Z,41.27
2019-01-21T06:22:08.259Z,41.53
2019-01-21T06:25:31.532Z,41.80
2019-01-21T06:28:51.776Z,41.43
2019-01-21T06:32:07.593Z,43.43
2019-01-21T06:35:35.209Z,42.33
2019-01-21T06:39:17.675Z,42.33
2019-01-21T06:42:23.107Z,44.60
2019-01-21T06:45:29.757Z,44.00
2019-01-21T06:49:09.846Z,43.07
2019-01-21T06:53:18.611Z,42.83
2019-01-21T06:56:33.013Z,44.10
2019-01-21T06:59:41.812Z,43.47
2019-01-21T07:03:06.215Z,41.37
2019-01-21T07:06:43.216Z,42.90
2019-01-21T07:10:02.762Z,42.97
2019-01-21T07:13:17.970Z,43.13
2019-01-21T07:16:40.983Z,42.77
2019-01-21T07:19:34.656Z,43.73
2019-01-21T07:22:32.592Z,44.87
2019-01-21T07:25:52.417Z,42.70
2019-01-21T07:29:29.735Z,44.80
2019-01-21T07:32:39.296Z,42.63
2019-01-21T07:35:59.938Z,46.00
2019-01-21T07:39:06.174Z,46.30
2019-01-21T07:42:17.721Z,42.77
2019-01-21T07:45:41.568Z,44.60
2019-01-21T07:48:25.442Z,44.30
2019-01-21T07:52:07.543Z,46.97
2019-01-21T07:55:03.897Z,42.30
2019-01-21T07:58:48.880Z,45.43
2019-01-21T08:01:57.271Z,45.70
2019-01-21T08:05:19.207Z,46.47
2019-01-21T08:08:03.351Z,45.63
2019-01-21T08:11:40.460Z,45.30
2019-01-21T08:14:46.980Z,46.00
2019-01-21T08:18:10.567Z,43.97
2019-01-21T08:21:35.980Z,44.87
2019-01-21T08:24:49.690Z,44.43
2019-01-21T08:28:09.242Z,47.60
2019-01-21T08:31:24.228Z,42.67
2019-01-21T08:34:49.617Z,43.77
2019-01-21T08:38:34.452Z,44.80
2019-01-21T08:41:56.068Z,45.50
2019-01-21T08:44:53.494Z,45.90
2019-01-21T08:48:05.685Z,47.13
2019-01-21T08:51:34.021Z,45.33
2019-01-21T08:54:40.030Z,45.30
2019-01-21T08:58:25.979Z,42.40
2019-01-21T09:01:36.230Z,45.33
2019-01-21T09:04:44.757Z,46.00
2019-01-21T09:08:08.756Z,46.20
2019-01-21T09:11:44.162Z,44.83
2019-01-21T09:15:28.500Z,44.13
2019-01-21T09:18:49.701Z,43.07
2019-01-21T09:22:14.953Z,42.93
2019-01-21T09:25:17.804Z,45.60
2019-01-21T09:28:29.416Z,43.40
2019-01-21T09:31:35.561Z,42.70
2019-01-21T09:34:53.894Z,44.63
2019-01-21T09:38:23.350Z,44.77
2019-01-21T09:41:40.572Z,44.63
2019-01-21T09:44:28.783Z,42.63
2019-01-21T09:46:55.222Z,44.03
2019-01-21T09:49:21.889Z,46.47
2019-01-21T09:51:58.369Z,44.47
2019-01-21T09:54:28.629Z,42.17
2019-01-21T09:57:00.310Z,42.63
2019-01-21T09:59:32.131Z,41.50
2019-01-21T10:02:02.602Z,42.53
2019-01-21T10:04:42.905Z,41.20
2019-01-21T10:07:31.959Z,40.63
2019-01-21T10:10:23.566Z,41.37
2019-01-21T10:13:56.893Z,42.30
2019-01-21T10:17:33.444Z,42.70
2019-01-21T10:20:43.919Z,40.10
2019-01-21T10:24:13.077Z,40.43
2019-01-21T10:27:26.651Z,38.50
2019-01-21T10:30:56.889Z,40.67
2019-01-21T10:34:23.783Z,39.87
2019-01-21T10:37:42.270Z,40.83
2019-01-21T10:41:19.876Z,39.93
2019-01-21T10:44:57.656Z,39.97
2019-01-21T10:47:58.128Z,43.17
2019-01-21T10:51:03.324Z,41.33
2019-01-21T10:53:58.237Z,39.93
2019-01-21T10:57:24.395Z,40.67
2019-01-21T11:00:35.010Z,41.80
2019-01-21T11:03:48.937Z,40.00
2019-01-21T11:06:45.008Z,39.23
2019-01-21T11:10:08.272Z,41.83
2019-01-21T11:13:55.621Z,39.40
2019-01-21T11:17:17.488Z,36.70
2019-01-21T11:20:55.703Z,36.80
2019-01-21T11:24:22.280Z,37.87
2019-01-21T11:28:00.327Z,36.93
2019-01-21T11:31:35.405Z,36.50
2019-01-21T11:34:55.237Z,37.67
2019-01-21T11:38:45.801Z,35.70
2019-01-21T11:42:28.985Z,38.23
2019-01-21T11:46:03.384Z,36.43
2019-01-21T11:49:17.457Z,36.07
2019-01-21T11:52:28.888Z,35.53
2019-01-21T11:55:50.107Z,36.00
2019-01-21T11:59:06.256Z,33.63
2019-01-21T12:02:40.491Z,36.20
2019-01-21T12:05:44.819Z,36.13
2019-01-21T12:09:19.985Z,34.43
2019-01-21T12:12:33.627Z,35.70
2019-01-21T12:15:49.070Z,36.27
2019-01-21T12:18:51.721Z,34.80
2019-01-21T12:22:17.022Z,34.30
2019-01-21T12:25:01.049Z,33.33
2019-01-21T12:28:17.119Z,33.53
2019-01-21T12:31:36.787Z,33.60
2019-01-21T12:34:57.358Z,33.77
2019-01-21T12:37:50.944Z,34.00
2019-01-21T12:41:56.705Z,32.93
2019-01-21T12:45:26.721Z,32.53
2019-01-21T12:48:41.105Z,31.90
2019-01-21T12:52:00.150Z,33.57
2019-01-21T12:55:38.075Z,31.57
2019-01-21T12:58:43.388Z,32.30
2019-01-21T13:01:46.379Z,33.03
2019-01-21T13:04:41.746Z,33.87
2019-01-21T13:07:50.889Z,32.20
2019-01-21T13:10:57.420Z,32.77
2019-01-21T13:14:13.247Z,32.97
2019-01-21T13:17:22.750Z,31.73
2019-01-21T13:20:49.591Z,32.27
2019-01-21T13:24:37.945Z,32.90
2019-01-21T13:27:47.355Z,32.33
2019-01-21T13:30:39.885Z,33.53
2019-01-21T13:33:33.541Z,31.50
2019-01-21T13:36:52.675Z,33.80
2019-01-21T13:40:17.674Z,32.50
2019-01-21T13:43:18.431Z,32.63
2019-01-21T13:46:53.900Z,32.57
2019-01-21T13:49:46.388Z,32.73
2019-01-21T13:52:39.931Z,33.47
2019-01-21T13:55:45.102Z,33.03
2019-01-21T13:58:51.698Z,32.93
2019-01-21T14:02:02.827Z,36.13
2019-01-21T14:05:30.975Z,31.63
2019-01-21T14:08:41.422Z,37.42
2019-01-21T14:11:44.911Z,34.43
2019-01-21T14:15:23.556Z,33.53
2019-01-21T14:18:54.802Z,32.67
2019-01-21T14:22:22.765Z,32.47
2019-01-21T14:25:42.307Z,32.30
2019-01-21T14:29:28.613Z,33.57
2019-01-21T14:32:38.226Z,32.17
2019-01-21T14:36:03.073Z,32.13
2019-01-21T14:39:32.121Z,33.03
2019-01-21T14:42:51.867Z,33.23
2019-01-21T14:46:33.490Z,32.80
2019-01-21T14:49:59.894Z,34.30
2019-01-21T14:53:37.473Z,32.90
2019-01-21T14:57:11.819Z,33.40
2019-01-21T15:00:39.913Z,35.03
2019-01-21T15:03:55.499Z,33.87
2019-01-21T15:07:02.325Z,34.23
2019-01-21T15:10:28.796Z,33.50
2019-01-21T15:14:07.182Z,34.33
2019-01-21T15:17:15.228Z,33.77
2019-01-21T15:20:17.638Z,33.90
2019-01-21T15:24:00.091Z,35.23
2019-01-21T15:27:29.517Z,33.93
2019-01-21T15:31:19.461Z,35.67
2019-01-21T15:34:25.012Z,34.97
2019-01-21T15:37:44.298Z,36.93
2019-01-21T15:41:08.156Z,35.30
2019-01-21T15:44:11.254Z,35.80
2019-01-21T15:47:14.266Z,35.33
2019-01-21T15:50:21.215Z,36.00
2019-01-21T15:53:38.618Z,34.00
2019-01-21T15:56:58.884Z,34.33
2019-01-21T16:00:17.016Z,33.43
2019-01-21T16:03:25.559Z,35.33
2019-01-21T16:07:10.789Z,33.93
2019-01-21T16:10:28.538Z,35.10
2019-01-21T16:13:40.997Z,33.90
2019-01-21T16:17:06.192Z,34.90
2019-01-21T16:20:21.095Z,35.27
2019-01-21T16:24:00.303Z,36.20
2019-01-21T16:27:14.359Z,34.33
2019-01-21T16:30:04.709Z,34.17
2019-01-21T16:33:11.183Z,35.10
2019-01-21T16:36:16.228Z,33.93
2019-01-21T16:39:19.150Z,33.97
2019-01-21T16:42:19.064Z,34.43
2019-01-21T16:44:47.907Z,34.30
2019-01-21T16:47:16.059Z,34.73
2019-01-21T16:49:44.235Z,33.20
2019-01-21T16:52:12.301Z,32.43
2019-01-21T16:54:41.465Z,32.27
2019-01-21T16:57:09.723Z,35.00
2019-01-21T16:59:37.903Z,33.67
2019-01-21T17:02:06.067Z,32.87
2019-01-21T17:04:34.120Z,32.07
2019-01-21T17:07:02.287Z,33.20
2019-01-21T17:09:30.571Z,33.13
2019-01-21T17:11:58.682Z,33.63
2019-01-21T17:14:26.858Z,34.93
2019-01-21T17:16:55.019Z,33.60
2019-01-21T17:19:23.080Z,33.93
2019-01-21T17:21:51.264Z,33.33
2019-01-21T17:24:19.455Z,32.27
2019-01-21T17:26:47.888Z,34.27
2019-01-21T17:29:16.186Z,33.40
2019-01-21T17:31:44.303Z,31.07
2019-01-21T17:34:12.377Z,33.53
2019-01-21T17:36:40.498Z,33.07
2019-01-21T17:39:09.403Z,34.43
2019-01-21T17:41:37.483Z,33.47
2019-01-21T17:44:06.166Z,32.40
2019-01-21T17:46:34.389Z,33.13
2019-01-21T17:49:02.772Z,33.30
2019-01-21T17:51:34.314Z,33.30
2019-01-21T17:54:00.951Z,33.77
2019-01-21T17:56:29.054Z,33.87
2019-01-21T17:58:57.120Z,33.87
2019-01-21T18:01:26.569Z,33.07
2019-01-21T18:03:54.600Z,33.23
2019-01-21T18:06:22.681Z,33.37
2019-01-21T18:08:50.821Z,33.33
2019-01-21T18:11:18.909Z,32.97
2019-01-21T18:13:47.013Z,34.60
2019-01-21T18:16:15.244Z,33.77
2019-01-21T18:18:43.392Z,33.73
2019-01-21T18:21:11.471Z,33.50
2019-01-21T18:23:39.545Z,34.73
2019-01-21T18:26:08.247Z,33.67
2019-01-21T18:28:36.490Z,34.23
2019-01-21T18:31:04.683Z,35.47
2019-01-21T18:33:33.468Z,33.60
2019-01-21T18:36:01.871Z,34.60
2019-01-21T18:38:31.280Z,33.93
2019-01-21T18:41:00.619Z,34.27
2019-01-21T18:43:30.924Z,32.63
2019-01-21T18:46:00.467Z,34.20
2019-01-21T18:48:29.917Z,33.23
2019-01-21T18:50:58.559Z,33.00
2019-01-21T18:53:26.884Z,35.67
2019-01-21T18:55:56.888Z,33.80
2019-01-21T18:58:26.206Z,33.60
2019-01-21T19:00:55.671Z,34.77
2019-01-21T19:03:24.815Z,34.77
2019-01-21T19:05:53.236Z,34.43
2019-01-21T19:08:21.377Z,33.93
2019-01-21T19:10:49.569Z,34.50
2019-01-21T19:13:17.640Z,36.30
2019-01-21T19:18:24.468Z,36.27
2019-01-21T19:20:52.639Z,35.27
2019-01-21T19:23:20.852Z,36.33
2019-01-21T19:25:48.888Z,33.43
2019-01-21T19:28:17.103Z,36.30
2019-01-21T19:30:45.194Z,34.40
2019-01-21T19:33:13.368Z,36.07
2019-01-21T19:35:42.488Z,36.37
2019-01-21T19:38:10.695Z,36.17
2019-01-21T19:40:38.820Z,36.37
2019-01-21T19:43:08.109Z,35.20
2019-01-21T19:45:36.230Z,33.93
2019-01-21T19:48:05.232Z,34.87
2019-01-21T19:50:33.362Z,34.70
2019-01-21T19:53:01.577Z,35.97
2019-01-21T19:55:37.515Z,34.60
2019-01-21T19:58:07.347Z,34.57
2019-01-21T20:00:35.774Z,34.37
2019-01-21T20:03:04.482Z,34.93
2019-01-21T20:05:32.728Z,35.87
2019-01-21T20:08:00.857Z,35.67
2019-01-21T20:10:28.987Z,34.33
2019-01-21T20:12:57.136Z,36.23
2019-01-21T20:15:25.599Z,37.73
2019-01-21T20:17:53.795Z,36.27
2019-01-21T20:20:29.132Z,35.03
2019-01-21T20:22:57.895Z,33.67
2019-01-21T20:25:26.102Z,35.77
2019-01-21T20:27:54.593Z,35.37
2019-01-21T20:30:23.230Z,34.43
2019-01-21T20:32:51.433Z,35.13
2019-01-21T20:35:19.551Z,35.27
2019-01-21T20:37:47.675Z,35.60
2019-01-21T20:40:20.114Z,35.03
2019-01-21T20:42:48.577Z,35.47
2019-01-21T20:45:17.233Z,35.73
2019-01-21T20:47:45.357Z,35.73
2019-01-21T20:50:18.374Z,35.33
2019-01-21T20:52:46.418Z,36.17
2019-01-21T20:55:15.584Z,34.70
2019-01-21T20:57:43.814Z,36.83
2019-01-21T21:00:16.781Z,37.63
2019-01-21T21:02:44.995Z,36.97
2019-01-21T21:05:13.437Z,38.13
2019-01-21T21:07:41.920Z,38.00
2019-01-21T21:10:10.668Z,39.20
2019-01-21T21:12:38.795Z,38.90
2019-01-21T21:15:11.991Z,39.90
2019-01-21T21:17:40.245Z,39.97
2019-01-21T21:20:10.445Z,39.87
2019-01-21T21:22:38.595Z,39.40
2019-01-21T21:25:09.619Z,41.37
2019-01-21T21:27:37.940Z,41.30
2019-01-21T21:30:20.995Z,41.03
2019-01-21T21:32:49.408Z,42.33
2019-01-21T21:35:17.723Z,44.00
2019-01-21T21:37:45.916Z,45.07
2019-01-21T21:40:16.758Z,43.70
2019-01-21T21:42:45.332Z,42.77
2019-01-21T21:45:16.080Z,46.13
2019-01-21T21:47:44.415Z,46.43
2019-01-21T21:50:17.059Z,45.93
2019-01-21T21:52:45.282Z,48.00
2019-01-21T21:55:13.780Z,46.07
2019-01-21T21:57:41.908Z,48.50
2019-01-21T22:00:15.535Z,48.33
2019-01-21T22:02:44.175Z,47.73
2019-01-21T22:05:12.893Z,47.20
2019-01-21T22:07:42.088Z,47.67
2019-01-21T22:10:19.605Z,61.68
2019-01-21T22:12:45.238Z,55.07
2019-01-21T22:15:17.454Z,55.37
2019-01-21T22:17:46.246Z,51.83
2019-01-21T22:20:22.497Z,49.77
2019-01-21T22:22:50.730Z,47.43
2019-01-21T22:25:19.198Z,47.33
2019-01-21T22:27:47.499Z,46.63
2019-01-21T22:30:20.028Z,46.30
2019-01-21T22:32:48.275Z,42.13
2019-01-21T22:35:16.477Z,41.73
2019-01-21T22:37:45.143Z,42.87
2019-01-21T22:40:16.798Z,45.43
2019-01-21T22:42:45.100Z,46.47
2019-01-21T22:45:15.615Z,45.90
2019-01-21T22:47:43.791Z,47.37
2019-01-21T22:50:13.727Z,48.13
2019-01-21T22:52:42.225Z,50.53
2019-01-21T22:55:12.310Z,51.40
2019-01-21T22:57:40.619Z,50.80
2019-01-21T23:01:05.388Z,51.47
2019-01-21T23:03:33.453Z,51.07
2019-01-21T23:06:01.736Z,52.17
2019-01-21T23:08:29.984Z,51.63
2019-01-21T23:10:58.077Z,53.43
2019-01-21T23:13:26.120Z,53.27
2019-01-21T23:15:54.156Z,55.00
2019-01-21T23:18:22.272Z,53.80
2019-01-21T23:20:51.017Z,54.50
2019-01-21T23:23:19.059Z,52.97
2019-01-21T23:25:47.122Z,53.60
2019-01-21T23:28:15.304Z,54.40
2019-01-21T23:30:43.731Z,54.97
2019-01-21T23:33:11.806Z,56.90
2019-01-21T23:35:39.927Z,55.27
2019-01-21T23:38:08.387Z,57.80
2019-01-21T23:40:36.544Z,54.83
2019-01-21T23:43:04.889Z,53.97
2019-01-21T23:45:33.294Z,55.90
2019-01-21T23:48:01.330Z,53.33
2019-01-21T23:50:29.633Z,55.37
2019-01-21T23:52:57.686Z,56.23
2019-01-21T23:55:25.937Z,54.70
2019-01-21T23:57:53.992Z,55.77
